sensor_id;sensor_type;location;lat;lon;timestamp;P1;durP1;ratioP1;P2;durP2;ratioP2
29218;SDS011;16421;50.202;7.852;2023-12-28T00:04:31;4.15;;;2.42;;
29218;SDS011;16421;50.202;7.852;2023-12-28T00:09:35;3.15;;;2.10;;
29218;SDS011;16421;50.202;7.852;2023-12-28T00:14:40;4.35;;;2.00;;
29218;SDS011;16421;50.202;7.852;2023-12-28T00:19:43;3.45;;;1.75;;
29218;SDS011;16421;50.202;7.852;2023-12-28T00:24:47;2.65;;;1.90;;
29218;SDS011;16421;50.202;7.852;2023-12-28T00:29:51;4.65;;;2.10;;
29218;SDS011;16421;50.202;7.852;2023-12-28T00:34:54;3.70;;;2.10;;
29218;SDS011;16421;50.202;7.852;2023-12-28T00:39:58;3.17;;;2.22;;
29218;SDS011;16421;50.202;7.852;2023-12-28T00:45:03;3.05;;;2.25;;
29218;SDS011;16421;50.202;7.852;2023-12-28T00:50:07;4.90;;;1.90;;
29218;SDS011;16421;50.202;7.852;2023-12-28T00:55:12;2.97;;;2.05;;
29218;SDS011;16421;50.202;7.852;2023-12-28T01:00:17;2.70;;;1.95;;
29218;SDS011;16421;50.202;7.852;2023-12-28T01:05:20;2.70;;;1.80;;
29218;SDS011;16421;50.202;7.852;2023-12-28T01:10:27;2.65;;;1.95;;
29218;SDS011;16421;50.202;7.852;2023-12-28T01:15:31;2.95;;;1.80;;
29218;SDS011;16421;50.202;7.852;2023-12-28T01:20:35;2.42;;;1.55;;
29218;SDS011;16421;50.202;7.852;2023-12-28T01:25:38;2.97;;;1.77;;
29218;SDS011;16421;50.202;7.852;2023-12-28T01:30:43;3.17;;;1.88;;
29218;SDS011;16421;50.202;7.852;2023-12-28T01:35:47;5.13;;;2.63;;
29218;SDS011;16421;50.202;7.852;2023-12-28T01:40:50;5.53;;;2.50;;
29218;SDS011;16421;50.202;7.852;2023-12-28T01:45:56;5.03;;;2.67;;
29218;SDS011;16421;50.202;7.852;2023-12-28T01:50:59;5.43;;;2.83;;
29218;SDS011;16421;50.202;7.852;2023-12-28T01:56:04;3.97;;;2.72;;
29218;SDS011;16421;50.202;7.852;2023-12-28T02:01:09;4.30;;;2.60;;
29218;SDS011;16421;50.202;7.852;2023-12-28T02:06:13;2.30;;;2.05;;
29218;SDS011;16421;50.202;7.852;2023-12-28T02:11:18;5.68;;;2.85;;
29218;SDS011;16421;50.202;7.852;2023-12-28T02:16:25;3.80;;;2.28;;
29218;SDS011;16421;50.202;7.852;2023-12-28T02:21:34;3.83;;;2.22;;
29218;SDS011;16421;50.202;7.852;2023-12-28T02:26:39;3.30;;;2.22;;
29218;SDS011;16421;50.202;7.852;2023-12-28T02:31:45;3.53;;;2.10;;
29218;SDS011;16421;50.202;7.852;2023-12-28T02:36:53;2.58;;;1.60;;
29218;SDS011;16421;50.202;7.852;2023-12-28T02:41:59;2.60;;;2.10;;
29218;SDS011;16421;50.202;7.852;2023-12-28T02:47:02;2.95;;;2.00;;
29218;SDS011;16421;50.202;7.852;2023-12-28T02:52:06;2.70;;;1.65;;
29218;SDS011;16421;50.202;7.852;2023-12-28T02:57:10;2.22;;;1.80;;
29218;SDS011;16421;50.202;7.852;2023-12-28T03:02:19;2.53;;;1.92;;
29218;SDS011;16421;50.202;7.852;2023-12-28T03:07:22;3.38;;;1.98;;
29218;SDS011;16421;50.202;7.852;2023-12-28T03:12:27;2.83;;;1.92;;
29218;SDS011;16421;50.202;7.852;2023-12-28T03:17:31;2.53;;;2.13;;
29218;SDS011;16421;50.202;7.852;2023-12-28T03:22:35;3.28;;;2.17;;
29218;SDS011;16421;50.202;7.852;2023-12-28T03:27:39;2.97;;;2.58;;
29218;SDS011;16421;50.202;7.852;2023-12-28T03:32:42;2.85;;;2.10;;
29218;SDS011;16421;50.202;7.852;2023-12-28T03:37:46;3.60;;;2.33;;
29218;SDS011;16421;50.202;7.852;2023-12-28T03:42:50;4.53;;;2.40;;
29218;SDS011;16421;50.202;7.852;2023-12-28T03:47:54;2.67;;;2.03;;
29218;SDS011;16421;50.202;7.852;2023-12-28T03:52:57;4.30;;;2.42;;
29218;SDS011;16421;50.202;7.852;2023-12-28T03:58:02;3.08;;;2.30;;
29218;SDS011;16421;50.202;7.852;2023-12-28T04:03:06;3.55;;;2.20;;
29218;SDS011;16421;50.202;7.852;2023-12-28T04:08:09;4.72;;;2.25;;
29218;SDS011;16421;50.202;7.852;2023-12-28T04:13:14;3.15;;;1.80;;
29218;SDS011;16421;50.202;7.852;2023-12-28T04:18:17;2.80;;;2.00;;
29218;SDS011;16421;50.202;7.852;2023-12-28T04:23:20;2.28;;;1.50;;
29218;SDS011;16421;50.202;7.852;2023-12-28T04:28:25;2.42;;;1.50;;
29218;SDS011;16421;50.202;7.852;2023-12-28T04:33:28;2.55;;;2.10;;
29218;SDS011;16421;50.202;7.852;2023-12-28T04:38:31;2.25;;;1.30;;
29218;SDS011;16421;50.202;7.852;2023-12-28T04:43:36;2.70;;;1.67;;
29218;SDS011;16421;50.202;7.852;2023-12-28T04:48:40;5.30;;;2.00;;
29218;SDS011;16421;50.202;7.852;2023-12-28T04:53:43;3.03;;;1.48;;
29218;SDS011;16421;50.202;7.852;2023-12-28T04:58:48;2.15;;;1.40;;
29218;SDS011;16421;50.202;7.852;2023-12-28T05:03:51;1.55;;;1.10;;
29218;SDS011;16421;50.202;7.852;2023-12-28T05:08:55;1.80;;;1.33;;
29218;SDS011;16421;50.202;7.852;2023-12-28T05:14:00;2.45;;;1.13;;
29218;SDS011;16421;50.202;7.852;2023-12-28T05:19:03;2.67;;;1.35;;
29218;SDS011;16421;50.202;7.852;2023-12-28T05:24:06;1.23;;;1.10;;
29218;SDS011;16421;50.202;7.852;2023-12-28T05:29:11;1.27;;;1.10;;
29218;SDS011;16421;50.202;7.852;2023-12-28T05:34:14;0.82;;;0.75;;
29218;SDS011;16421;50.202;7.852;2023-12-28T05:39:18;1.77;;;1.27;;
29218;SDS011;16421;50.202;7.852;2023-12-28T05:44:22;1.77;;;1.10;;
29218;SDS011;16421;50.202;7.852;2023-12-28T05:49:25;1.92;;;1.15;;
29218;SDS011;16421;50.202;7.852;2023-12-28T05:54:30;2.00;;;1.15;;
29218;SDS011;16421;50.202;7.852;2023-12-28T05:59:36;1.05;;;0.88;;
29218;SDS011;16421;50.202;7.852;2023-12-28T06:04:40;2.05;;;0.93;;
29218;SDS011;16421;50.202;7.852;2023-12-28T06:09:44;2.30;;;1.10;;
29218;SDS011;16421;50.202;7.852;2023-12-28T06:14:48;1.83;;;1.30;;
29218;SDS011;16421;50.202;7.852;2023-12-28T06:19:52;1.85;;;1.20;;
29218;SDS011;16421;50.202;7.852;2023-12-28T06:24:55;1.65;;;1.10;;
29218;SDS011;16421;50.202;7.852;2023-12-28T06:30:00;2.38;;;1.10;;
29218;SDS011;16421;50.202;7.852;2023-12-28T06:35:03;1.98;;;1.20;;
29218;SDS011;16421;50.202;7.852;2023-12-28T06:40:08;2.08;;;1.10;;
29218;SDS011;16421;50.202;7.852;2023-12-28T06:45:13;1.33;;;1.02;;
29218;SDS011;16421;50.202;7.852;2023-12-28T06:50:17;1.52;;;1.33;;
29218;SDS011;16421;50.202;7.852;2023-12-28T06:55:20;1.58;;;1.23;;
29218;SDS011;16421;50.202;7.852;2023-12-28T07:00:24;1.30;;;1.10;;
29218;SDS011;16421;50.202;7.852;2023-12-28T07:05:27;2.42;;;1.27;;
29218;SDS011;16421;50.202;7.852;2023-12-28T07:10:31;2.15;;;1.60;;
29218;SDS011;16421;50.202;7.852;2023-12-28T07:15:35;3.05;;;1.38;;
29218;SDS011;16421;50.202;7.852;2023-12-28T07:20:38;2.28;;;1.23;;
29218;SDS011;16421;50.202;7.852;2023-12-28T07:25:42;1.35;;;1.20;;
29218;SDS011;16421;50.202;7.852;2023-12-28T07:30:46;2.13;;;1.42;;
29218;SDS011;16421;50.202;7.852;2023-12-28T07:35:50;2.85;;;1.33;;
29218;SDS011;16421;50.202;7.852;2023-12-28T07:40:53;2.38;;;1.45;;
29218;SDS011;16421;50.202;7.852;2023-12-28T07:45:57;1.10;;;1.00;;
29218;SDS011;16421;50.202;7.852;2023-12-28T07:51:03;1.50;;;1.08;;
29218;SDS011;16421;50.202;7.852;2023-12-28T07:56:07;2.95;;;1.05;;
29218;SDS011;16421;50.202;7.852;2023-12-28T08:01:11;3.00;;;1.20;;
29218;SDS011;16421;50.202;7.852;2023-12-28T08:06:14;1.42;;;1.20;;
29218;SDS011;16421;50.202;7.852;2023-12-28T08:11:18;1.70;;;1.08;;
29218;SDS011;16421;50.202;7.852;2023-12-28T08:16:23;3.70;;;1.20;;
29218;SDS011;16421;50.202;7.852;2023-12-28T08:21:27;1.67;;;1.10;;
29218;SDS011;16421;50.202;7.852;2023-12-28T08:26:30;1.65;;;0.90;;
29218;SDS011;16421;50.202;7.852;2023-12-28T08:31:36;3.10;;;1.15;;
29218;SDS011;16421;50.202;7.852;2023-12-28T08:36:39;1.63;;;1.20;;
29218;SDS011;16421;50.202;7.852;2023-12-28T08:41:43;2.28;;;0.98;;
29218;SDS011;16421;50.202;7.852;2023-12-28T08:46:47;4.05;;;1.45;;
29218;SDS011;16421;50.202;7.852;2023-12-28T08:51:50;3.20;;;1.25;;
29218;SDS011;16421;50.202;7.852;2023-12-28T08:56:54;1.90;;;1.08;;
29218;SDS011;16421;50.202;7.852;2023-12-28T09:02:00;2.42;;;1.00;;
29218;SDS011;16421;50.202;7.852;2023-12-28T09:07:03;2.88;;;1.10;;
29218;SDS011;16421;50.202;7.852;2023-12-28T09:12:07;3.60;;;1.33;;
29218;SDS011;16421;50.202;7.852;2023-12-28T09:17:11;4.28;;;1.23;;
29218;SDS011;16421;50.202;7.852;2023-12-28T09:22:14;2.03;;;0.88;;
29218;SDS011;16421;50.202;7.852;2023-12-28T09:27:18;1.55;;;0.93;;
29218;SDS011;16421;50.202;7.852;2023-12-28T09:32:22;1.40;;;1.20;;
29218;SDS011;16421;50.202;7.852;2023-12-28T09:37:26;2.20;;;1.23;;
29218;SDS011;16421;50.202;7.852;2023-12-28T09:42:31;2.97;;;1.40;;
29218;SDS011;16421;50.202;7.852;2023-12-28T09:47:43;2.05;;;1.35;;
29218;SDS011;16421;50.202;7.852;2023-12-28T09:52:47;1.98;;;1.27;;
29218;SDS011;16421;50.202;7.852;2023-12-28T09:57:50;3.75;;;1.58;;
29218;SDS011;16421;50.202;7.852;2023-12-28T10:02:55;1.38;;;0.75;;
29218;SDS011;16421;50.202;7.852;2023-12-28T10:07:58;6.63;;;1.30;;
29218;SDS011;16421;50.202;7.852;2023-12-28T10:13:01;1.48;;;0.82;;
29218;SDS011;16421;50.202;7.852;2023-12-28T10:18:06;3.28;;;1.10;;
29218;SDS011;16421;50.202;7.852;2023-12-28T10:23:10;2.17;;;1.30;;
29218;SDS011;16421;50.202;7.852;2023-12-28T10:28:13;2.53;;;1.10;;
29218;SDS011;16421;50.202;7.852;2023-12-28T10:33:21;2.45;;;1.15;;
29218;SDS011;16421;50.202;7.852;2023-12-28T10:38:24;2.67;;;1.20;;
29218;SDS011;16421;50.202;7.852;2023-12-28T10:43:30;2.60;;;1.15;;
29218;SDS011;16421;50.202;7.852;2023-12-28T10:48:42;1.83;;;1.10;;
29218;SDS011;16421;50.202;7.852;2023-12-28T10:53:49;2.63;;;1.25;;
29218;SDS011;16421;50.202;7.852;2023-12-28T10:58:58;3.92;;;1.17;;
29218;SDS011;16421;50.202;7.852;2023-12-28T11:04:15;2.53;;;1.45;;
29218;SDS011;16421;50.202;7.852;2023-12-28T11:09:24;4.85;;;1.13;;
29218;SDS011;16421;50.202;7.852;2023-12-28T11:14:32;2.85;;;1.33;;
29218;SDS011;16421;50.202;7.852;2023-12-28T11:19:38;3.38;;;1.05;;
29218;SDS011;16421;50.202;7.852;2023-12-28T11:24:44;2.63;;;1.02;;
29218;SDS011;16421;50.202;7.852;2023-12-28T11:29:47;3.08;;;1.02;;
29218;SDS011;16421;50.202;7.852;2023-12-28T11:35:00;2.57;;;1.20;;
29218;SDS011;16421;50.202;7.852;2023-12-28T11:40:09;3.47;;;1.35;;
29218;SDS011;16421;50.202;7.852;2023-12-28T11:45:16;3.10;;;1.08;;
29218;SDS011;16421;50.202;7.852;2023-12-28T11:50:21;4.22;;;1.65;;
29218;SDS011;16421;50.202;7.852;2023-12-28T11:55:24;1.83;;;0.90;;
29218;SDS011;16421;50.202;7.852;2023-12-28T12:00:28;2.97;;;1.17;;
29218;SDS011;16421;50.202;7.852;2023-12-28T12:05:32;2.25;;;0.93;;
29218;SDS011;16421;50.202;7.852;2023-12-28T12:10:36;2.63;;;0.95;;
29218;SDS011;16421;50.202;7.852;2023-12-28T12:15:39;4.55;;;0.88;;
29218;SDS011;16421;50.202;7.852;2023-12-28T12:20:44;6.75;;;1.45;;
29218;SDS011;16421;50.202;7.852;2023-12-28T12:25:47;4.15;;;1.05;;
29218;SDS011;16421;50.202;7.852;2023-12-28T12:30:51;3.47;;;1.10;;
29218;SDS011;16421;50.202;7.852;2023-12-28T12:41:01;6.03;;;1.52;;
29218;SDS011;16421;50.202;7.852;2023-12-28T12:46:04;4.65;;;1.27;;
29218;SDS011;16421;50.202;7.852;2023-12-28T12:51:09;4.47;;;1.50;;
29218;SDS011;16421;50.202;7.852;2023-12-28T12:56:13;2.85;;;1.30;;
29218;SDS011;16421;50.202;7.852;2023-12-28T13:01:19;5.25;;;1.60;;
29218;SDS011;16421;50.202;7.852;2023-12-28T13:06:24;5.28;;;1.38;;
29218;SDS011;16421;50.202;7.852;2023-12-28T13:11:27;3.55;;;1.08;;
29218;SDS011;16421;50.202;7.852;2023-12-28T13:16:30;3.30;;;0.98;;
29218;SDS011;16421;50.202;7.852;2023-12-28T13:21:35;1.73;;;1.02;;
29218;SDS011;16421;50.202;7.852;2023-12-28T13:26:38;3.22;;;1.27;;
29218;SDS011;16421;50.202;7.852;2023-12-28T13:31:41;3.78;;;1.50;;
29218;SDS011;16421;50.202;7.852;2023-12-28T13:36:57;4.03;;;1.35;;
29218;SDS011;16421;50.202;7.852;2023-12-28T13:42:25;1.90;;;1.10;;
29218;SDS011;16421;50.202;7.852;2023-12-28T13:47:29;2.22;;;1.20;;
29218;SDS011;16421;50.202;7.852;2023-12-28T13:52:33;2.17;;;1.33;;
29218;SDS011;16421;50.202;7.852;2023-12-28T13:57:37;3.50;;;1.25;;
29218;SDS011;16421;50.202;7.852;2023-12-28T14:02:40;3.55;;;0.90;;
29218;SDS011;16421;50.202;7.852;2023-12-28T14:07:45;1.58;;;0.93;;
29218;SDS011;16421;50.202;7.852;2023-12-28T14:12:48;5.38;;;1.48;;
29218;SDS011;16421;50.202;7.852;2023-12-28T14:17:52;2.28;;;1.15;;
29218;SDS011;16421;50.202;7.852;2023-12-28T14:22:57;3.13;;;1.05;;
29218;SDS011;16421;50.202;7.852;2023-12-28T14:28:00;2.22;;;0.90;;
29218;SDS011;16421;50.202;7.852;2023-12-28T14:33:05;1.70;;;0.60;;
29218;SDS011;16421;50.202;7.852;2023-12-28T14:38:10;2.97;;;0.65;;
29218;SDS011;16421;50.202;7.852;2023-12-28T14:43:14;2.83;;;1.13;;
29218;SDS011;16421;50.202;7.852;2023-12-28T14:48:17;1.40;;;0.80;;
29218;SDS011;16421;50.202;7.852;2023-12-28T14:53:22;2.85;;;1.10;;
29218;SDS011;16421;50.202;7.852;2023-12-28T14:58:27;1.75;;;0.90;;
29218;SDS011;16421;50.202;7.852;2023-12-28T15:03:31;2.33;;;0.90;;
29218;SDS011;16421;50.202;7.852;2023-12-28T15:08:36;2.78;;;1.05;;
29218;SDS011;16421;50.202;7.852;2023-12-28T15:13:39;1.65;;;0.80;;
29218;SDS011;16421;50.202;7.852;2023-12-28T15:18:43;1.38;;;0.85;;
29218;SDS011;16421;50.202;7.852;2023-12-28T15:23:49;1.88;;;0.70;;
29218;SDS011;16421;50.202;7.852;2023-12-28T15:28:53;3.35;;;0.93;;
29218;SDS011;16421;50.202;7.852;2023-12-28T15:33:56;1.30;;;0.75;;
29218;SDS011;16421;50.202;7.852;2023-12-28T15:39:01;1.33;;;0.73;;
29218;SDS011;16421;50.202;7.852;2023-12-28T15:44:06;2.15;;;1.00;;
29218;SDS011;16421;50.202;7.852;2023-12-28T15:49:09;1.67;;;1.00;;
29218;SDS011;16421;50.202;7.852;2023-12-28T15:54:14;2.17;;;0.88;;
29218;SDS011;16421;50.202;7.852;2023-12-28T15:59:17;3.25;;;1.30;;
29218;SDS011;16421;50.202;7.852;2023-12-28T16:04:20;1.65;;;1.08;;
29218;SDS011;16421;50.202;7.852;2023-12-28T16:09:26;1.55;;;0.82;;
29218;SDS011;16421;50.202;7.852;2023-12-28T16:14:29;4.75;;;1.30;;
29218;SDS011;16421;50.202;7.852;2023-12-28T16:19:33;2.83;;;1.45;;
29218;SDS011;16421;50.202;7.852;2023-12-28T16:24:38;1.92;;;1.00;;
29218;SDS011;16421;50.202;7.852;2023-12-28T16:29:41;1.77;;;0.90;;
29218;SDS011;16421;50.202;7.852;2023-12-28T16:34:44;2.35;;;1.08;;
29218;SDS011;16421;50.202;7.852;2023-12-28T16:39:49;1.67;;;0.88;;
29218;SDS011;16421;50.202;7.852;2023-12-28T16:44:52;2.22;;;1.17;;
29218;SDS011;16421;50.202;7.852;2023-12-28T16:49:56;2.50;;;1.30;;
29218;SDS011;16421;50.202;7.852;2023-12-28T16:55:00;1.95;;;1.10;;
29218;SDS011;16421;50.202;7.852;2023-12-28T17:00:05;1.70;;;1.10;;
29218;SDS011;16421;50.202;7.852;2023-12-28T17:05:10;2.73;;;1.50;;
29218;SDS011;16421;50.202;7.852;2023-12-28T17:10:16;2.85;;;1.33;;
29218;SDS011;16421;50.202;7.852;2023-12-28T17:15:20;2.67;;;1.30;;
29218;SDS011;16421;50.202;7.852;2023-12-28T17:20:24;4.15;;;1.90;;
29218;SDS011;16421;50.202;7.852;2023-12-28T17:25:31;5.88;;;1.95;;
29218;SDS011;16421;50.202;7.852;2023-12-28T17:30:41;3.10;;;1.80;;
29218;SDS011;16421;50.202;7.852;2023-12-28T17:35:46;2.57;;;1.17;;
29218;SDS011;16421;50.202;7.852;2023-12-28T17:40:52;2.65;;;1.20;;
29218;SDS011;16421;50.202;7.852;2023-12-28T17:45:56;2.47;;;1.30;;
29218;SDS011;16421;50.202;7.852;2023-12-28T17:51:05;3.38;;;1.35;;
29218;SDS011;16421;50.202;7.852;2023-12-28T17:56:10;2.35;;;1.30;;
29218;SDS011;16421;50.202;7.852;2023-12-28T18:01:14;1.95;;;1.60;;
29218;SDS011;16421;50.202;7.852;2023-12-28T18:06:18;2.97;;;1.63;;
29218;SDS011;16421;50.202;7.852;2023-12-28T18:11:23;2.60;;;1.40;;
29218;SDS011;16421;50.202;7.852;2023-12-28T18:16:27;2.95;;;1.15;;
29218;SDS011;16421;50.202;7.852;2023-12-28T18:21:30;4.18;;;1.48;;
29218;SDS011;16421;50.202;7.852;2023-12-28T18:26:35;3.47;;;1.63;;
29218;SDS011;16421;50.202;7.852;2023-12-28T18:31:38;3.08;;;1.13;;
29218;SDS011;16421;50.202;7.852;2023-12-28T18:36:41;3.25;;;1.52;;
29218;SDS011;16421;50.202;7.852;2023-12-28T18:41:46;3.20;;;1.65;;
29218;SDS011;16421;50.202;7.852;2023-12-28T18:46:49;4.10;;;2.10;;
29218;SDS011;16421;50.202;7.852;2023-12-28T18:51:52;4.47;;;2.00;;
29218;SDS011;16421;50.202;7.852;2023-12-28T18:56:57;2.10;;;1.42;;
29218;SDS011;16421;50.202;7.852;2023-12-28T19:02:00;2.28;;;1.30;;
29218;SDS011;16421;50.202;7.852;2023-12-28T19:07:03;3.22;;;1.30;;
29218;SDS011;16421;50.202;7.852;2023-12-28T19:12:10;1.92;;;1.60;;
29218;SDS011;16421;50.202;7.852;2023-12-28T19:17:13;3.88;;;2.20;;
29218;SDS011;16421;50.202;7.852;2023-12-28T19:22:16;2.63;;;1.48;;
29218;SDS011;16421;50.202;7.852;2023-12-28T19:27:21;2.10;;;1.30;;
29218;SDS011;16421;50.202;7.852;2023-12-28T19:32:25;3.47;;;1.40;;
29218;SDS011;16421;50.202;7.852;2023-12-28T19:37:29;3.00;;;1.30;;
29218;SDS011;16421;50.202;7.852;2023-12-28T19:42:35;2.53;;;1.45;;
29218;SDS011;16421;50.202;7.852;2023-12-28T19:47:38;2.13;;;1.38;;
29218;SDS011;16421;50.202;7.852;2023-12-28T19:52:42;3.75;;;2.13;;
29218;SDS011;16421;50.202;7.852;2023-12-28T19:57:46;2.17;;;1.50;;
29218;SDS011;16421;50.202;7.852;2023-12-28T20:02:49;2.03;;;1.23;;
29218;SDS011;16421;50.202;7.852;2023-12-28T20:07:54;2.42;;;1.10;;
29218;SDS011;16421;50.202;7.852;2023-12-28T20:12:58;1.70;;;1.10;;
29218;SDS011;16421;50.202;7.852;2023-12-28T20:18:02;1.80;;;1.00;;
29218;SDS011;16421;50.202;7.852;2023-12-28T20:23:05;1.00;;;0.80;;
29218;SDS011;16421;50.202;7.852;2023-12-28T20:28:11;4.10;;;0.80;;
29218;SDS011;16421;50.202;7.852;2023-12-28T20:33:14;1.48;;;1.00;;
29218;SDS011;16421;50.202;7.852;2023-12-28T20:38:17;1.17;;;0.80;;
29218;SDS011;16421;50.202;7.852;2023-12-28T20:43:22;1.25;;;0.90;;
29218;SDS011;16421;50.202;7.852;2023-12-28T20:48:26;1.08;;;0.98;;
29218;SDS011;16421;50.202;7.852;2023-12-28T20:53:30;1.05;;;0.82;;
29218;SDS011;16421;50.202;7.852;2023-12-28T20:58:34;2.08;;;0.77;;
29218;SDS011;16421;50.202;7.852;2023-12-28T21:03:38;1.13;;;0.70;;
29218;SDS011;16421;50.202;7.852;2023-12-28T21:08:41;1.35;;;0.90;;
29218;SDS011;16421;50.202;7.852;2023-12-28T21:13:46;1.95;;;0.70;;
29218;SDS011;16421;50.202;7.852;2023-12-28T21:23:54;1.90;;;0.73;;
29218;SDS011;16421;50.202;7.852;2023-12-28T21:28:58;1.10;;;0.50;;
29218;SDS011;16421;50.202;7.852;2023-12-28T21:34:02;0.50;;;0.50;;
29218;SDS011;16421;50.202;7.852;2023-12-28T21:39:05;1.75;;;0.60;;
29218;SDS011;16421;50.202;7.852;2023-12-28T21:44:09;0.85;;;0.63;;
29218;SDS011;16421;50.202;7.852;2023-12-28T21:49:13;3.50;;;1.88;;
29218;SDS011;16421;50.202;7.852;2023-12-28T21:54:17;1.33;;;0.98;;
29218;SDS011;16421;50.202;7.852;2023-12-28T21:59:22;0.50;;;0.50;;
29218;SDS011;16421;50.202;7.852;2023-12-28T22:04:26;1.27;;;0.60;;
29218;SDS011;16421;50.202;7.852;2023-12-28T22:09:29;0.60;;;0.50;;
29218;SDS011;16421;50.202;7.852;2023-12-28T22:14:34;1.35;;;0.50;;
29218;SDS011;16421;50.202;7.852;2023-12-28T22:19:40;0.93;;;0.80;;
29218;SDS011;16421;50.202;7.852;2023-12-28T22:24:45;2.28;;;1.00;;
29218;SDS011;16421;50.202;7.852;2023-12-28T22:29:49;0.70;;;0.70;;
29218;SDS011;16421;50.202;7.852;2023-12-28T22:34:56;1.58;;;0.80;;
29218;SDS011;16421;50.202;7.852;2023-12-28T22:39:59;1.73;;;0.75;;
29218;SDS011;16421;50.202;7.852;2023-12-28T22:45:07;0.65;;;0.65;;
29218;SDS011;16421;50.202;7.852;2023-12-28T22:50:11;1.33;;;1.00;;
29218;SDS011;16421;50.202;7.852;2023-12-28T22:55:14;1.52;;;0.98;;
29218;SDS011;16421;50.202;7.852;2023-12-28T23:00:19;1.27;;;0.82;;
29218;SDS011;16421;50.202;7.852;2023-12-28T23:05:25;1.05;;;0.95;;
29218;SDS011;16421;50.202;7.852;2023-12-28T23:10:28;1.67;;;0.88;;
29218;SDS011;16421;50.202;7.852;2023-12-28T23:15:33;1.02;;;0.80;;
29218;SDS011;16421;50.202;7.852;2023-12-28T23:20:36;1.63;;;1.02;;
29218;SDS011;16421;50.202;7.852;2023-12-28T23:25:40;1.42;;;1.20;;
29218;SDS011;16421;50.202;7.852;2023-12-28T23:30:45;1.05;;;0.88;;
29218;SDS011;16421;50.202;7.852;2023-12-28T23:35:48;1.85;;;1.38;;
29218;SDS011;16421;50.202;7.852;2023-12-28T23:40:52;1.35;;;1.20;;
29218;SDS011;16421;50.202;7.852;2023-12-28T23:45:57;1.15;;;1.02;;
29218;SDS011;16421;50.202;7.852;2023-12-28T23:51:00;2.17;;;1.38;;
29218;SDS011;16421;50.202;7.852;2023-12-28T23:56:04;2.15;;;1.45;;
